Time;durP1;ratioP1;P1;durP2;ratioP2;P2;SDS_P1;SDS_P2;PMS_P1;PMS_P2;Temp;Humidity;BMP_temperature;BMP_pressure;BME280_temperature;BME280_humidity;BME280_pressure;Samples;Min_cycle;Max_cycle;Signal;HPM_P1;HPM_P2
2023/05/21 00:01:47;;;;;;;11.55;7.43;;;14.10;1.00;;;;;;5034627;28;20021;-60
2023/05/21 00:04:14;;;;;;;12.85;7.40;;;14.10;1.00;;;;;;5034517;28;20109;-61
2023/05/21 00:06:40;;;;;;;9.73;7.82;;;14.10;1.00;;;;;;5034501;28;20026;-60
2023/05/21 00:09:06;;;;;;;11.20;8.43;;;14.10;1.00;;;;;;5034364;28;20048;-59
2023/05/21 00:11:32;;;;;;;11.05;7.97;;;14.00;1.00;;;;;;5034504;28;20029;-61
2023/05/21 00:13:58;;;;;;;9.45;8.25;;;13.90;1.00;;;;;;5034256;28;20030;-60
2023/05/21 00:16:24;;;;;;;10.40;8.95;;;13.90;1.00;;;;;;5032945;28;20033;-60
2023/05/21 00:18:50;;;;;;;13.80;8.23;;;13.80;1.00;;;;;;5034176;28;20030;-60
2023/05/21 00:21:24;;;;;;;9.23;8.10;;;13.80;1.00;;;;;;5033593;28;20099;-60
2023/05/21 00:23:53;;;;;;;12.57;8.80;;;13.80;6.70;;;;;;5034176;28;20125;-61
2023/05/21 00:26:20;;;;;;;10.23;7.53;;;13.70;15.60;;;;;;5034036;28;20361;-60
2023/05/21 00:28:46;;;;;;;9.98;7.32;;;13.80;17.50;;;;;;5033941;28;20037;-61
2023/05/21 00:31:12;;;;;;;10.70;8.27;;;13.80;17.20;;;;;;5032813;28;20026;-60
2023/05/21 00:33:37;;;;;;;11.88;8.05;;;13.70;19.40;;;;;;5033991;28;20033;-60
2023/05/21 00:36:04;;;;;;;10.77;8.57;;;13.70;23.00;;;;;;5034112;28;20028;-60
2023/05/21 00:38:31;;;;;;;9.88;8.27;;;13.70;25.10;;;;;;5034359;28;20033;-60
2023/05/21 00:41:01;;;;;;;15.07;8.50;;;13.60;27.20;;;;;;5033821;28;20114;-60
2023/05/21 00:43:27;;;;;;;11.05;7.82;;;13.60;28.90;;;;;;5033683;28;20360;-60
2023/05/21 00:45:55;;;;;;;11.25;8.95;;;13.50;29.70;;;;;;5033810;28;20034;-60
2023/05/21 00:48:21;;;;;;;20.38;8.70;;;13.50;31.40;;;;;;5033871;28;20026;-60
2023/05/21 00:50:48;;;;;;;12.30;8.85;;;13.50;38.40;;;;;;5033224;28;20743;-60
2023/05/21 00:53:16;;;;;;;11.40;8.43;;;13.40;37.60;;;;;;5032405;28;20107;-60
2023/05/21 00:55:42;;;;;;;8.43;7.30;;;13.30;42.60;;;;;;5033609;28;20021;-60
2023/05/21 00:58:08;;;;;;;9.88;8.57;;;13.30;47.00;;;;;;5033309;28;20025;-60
2023/05/21 01:00:35;;;;;;;11.27;8.95;;;13.20;50.10;;;;;;5033575;28;20108;-60
2023/05/21 01:03:01;;;;;;;9.38;8.35;;;13.10;51.70;;;;;;5033342;28;20437;-60
2023/05/21 01:05:29;;;;;;;9.13;8.23;;;13.00;57.30;;;;;;5033379;28;20069;-60
2023/05/21 01:07:56;;;;;;;13.52;8.60;;;13.00;63.40;;;;;;5033349;28;20040;-60
2023/05/21 01:10:23;;;;;;;10.50;8.85;;;12.90;65.10;;;;;;5031936;28;20026;-60
2023/05/21 01:12:50;;;;;;;12.45;9.50;;;12.90;67.80;;;;;;5032784;28;20017;-60
2023/05/21 01:15:16;;;;;;;10.93;8.30;;;13.00;67.10;;;;;;5032874;28;20047;-58
2023/05/21 01:17:44;;;;;;;12.35;9.65;;;12.90;68.80;;;;;;5032702;28;20037;-58
2023/05/21 01:20:10;;;;;;;13.80;9.32;;;13.00;67.80;;;;;;5032378;28;20116;-59
2023/05/21 01:22:48;;;;;;;10.40;8.85;;;12.90;68.50;;;;;;5033100;28;20025;-60
2023/05/21 01:25:13;;;;;;;13.15;9.45;;;12.90;69.20;;;;;;5033139;28;20444;-60
2023/05/21 01:27:39;;;;;;;12.85;9.27;;;12.90;70.60;;;;;;5032753;28;20030;-60
2023/05/21 01:30:07;;;;;;;15.45;9.35;;;12.90;70.80;;;;;;5033351;28;20022;-60
2023/05/21 01:32:41;;;;;;;13.82;9.73;;;13.00;71.80;;;;;;5032956;28;20752;-60
2023/05/21 01:35:29;;;;;;;12.48;9.27;;;12.90;73.60;;;;;;5032743;28;20017;-60
2023/05/21 01:38:03;;;;;;;14.70;10.00;;;12.90;74.20;;;;;;5032752;28;20025;-60
2023/05/21 01:40:44;;;;;;;15.65;11.90;;;12.90;76.20;;;;;;5032696;28;20025;-60
2023/05/21 01:43:11;;;;;;;12.60;10.90;;;12.90;79.00;;;;;;5031318;28;20021;-60
2023/05/21 01:45:40;;;;;;;14.20;11.55;;;12.90;81.30;;;;;;5032681;28;20033;-60
2023/05/21 01:48:08;;;;;;;14.48;11.45;;;12.90;82.50;;;;;;5032403;28;20116;-60
2023/05/21 01:50:36;;;;;;;14.05;11.38;;;13.00;82.40;;;;;;5032419;28;20026;-60
2023/05/21 01:53:04;;;;;;;16.95;12.43;;;13.00;83.30;;;;;;5032569;28;20028;-60
2023/05/21 01:55:30;;;;;;;14.23;11.88;;;13.00;84.40;;;;;;5032415;28;20330;-60
2023/05/21 01:57:57;;;;;;;16.20;13.95;;;13.00;85.80;;;;;;5032386;28;20021;-60
2023/05/21 02:00:27;;;;;;;21.10;13.25;;;13.00;89.20;;;;;;5032452;28;20032;-60
2023/05/21 02:02:53;;;;;;;23.77;13.82;;;12.90;90.70;;;;;;5030780;28;20028;-60
2023/05/21 02:05:18;;;;;;;18.20;13.90;;;13.00;91.70;;;;;;5032885;28;20388;-60
2023/05/21 02:07:50;;;;;;;21.90;14.60;;;13.00;92.00;;;;;;5031709;28;20091;-60
2023/05/21 02:10:17;;;;;;;20.35;14.63;;;13.00;92.50;;;;;;5032339;28;20116;-60
2023/05/21 02:12:43;;;;;;;17.20;14.93;;;13.00;92.50;;;;;;5032002;28;20018;-60
2023/05/21 02:15:09;;;;;;;25.63;16.23;;;13.00;93.30;;;;;;5032178;28;20037;-60
2023/05/21 02:17:36;;;;;;;29.20;17.08;;;13.00;94.70;;;;;;5030741;28;20033;-60
2023/05/21 02:20:10;;;;;;;23.02;16.77;;;12.90;96.00;;;;;;5031934;28;20045;-60
2023/05/21 02:22:43;;;;;;;22.65;16.73;;;12.90;97.00;;;;;;5031934;28;20038;-60
2023/05/21 02:25:10;;;;;;;23.33;18.85;;;12.90;97.20;;;;;;5031929;28;20037;-60
2023/05/21 02:27:37;;;;;;;29.10;18.88;;;12.90;97.80;;;;;;5032196;28;20045;-60
2023/05/21 02:30:07;;;;;;;23.75;18.00;;;12.90;98.90;;;;;;5032110;28;20117;-60
2023/05/21 02:32:33;;;;;;;31.63;19.38;;;12.90;99.00;;;;;;5031931;28;20112;-60
2023/05/21 02:35:00;;;;;;;22.90;18.58;;;12.90;99.70;;;;;;5031729;28;20025;-60
2023/05/21 02:37:26;;;;;;;28.52;21.35;;;12.90;99.80;;;;;;5012148;28;20588;-60
2023/05/21 02:39:55;;;;;;;27.33;21.50;;;12.90;99.80;;;;;;5012077;28;20072;-60
2023/05/21 02:42:22;;;;;;;28.10;20.55;;;12.90;99.90;;;;;;5012654;28;20049;-60
2023/05/21 02:44:49;;;;;;;29.88;21.88;;;12.90;99.90;;;;;;5011575;28;20037;-60
2023/05/21 02:47:15;;;;;;;37.55;23.48;;;12.80;99.90;;;;;;5012013;28;20022;-60
2023/05/21 02:49:41;;;;;;;34.90;23.88;;;12.80;99.90;;;;;;5011736;28;20029;-60
2023/05/21 02:52:07;;;;;;;33.28;24.83;;;12.80;99.90;;;;;;5030002;28;20140;-60
2023/05/21 02:54:32;;;;;;;33.28;24.55;;;12.70;99.90;;;;;;5030390;28;20061;-60
2023/05/21 02:56:58;;;;;;;28.55;23.70;;;12.80;99.90;;;;;;5031548;28;20147;-60
2023/05/21 02:59:24;;;;;;;34.70;26.75;;;12.70;99.90;;;;;;5031492;28;20375;-60
2023/05/21 03:01:49;;;;;;;36.75;25.45;;;12.70;99.90;;;;;;5031555;28;20040;-60
2023/05/21 03:04:20;;;;;;;38.63;28.60;;;12.80;99.90;;;;;;5031292;28;20052;-60
2023/05/21 03:06:47;;;;;;;39.97;26.42;;;12.80;99.90;;;;;;5030575;28;20025;-60
2023/05/21 03:09:13;;;;;;;35.90;26.00;;;12.80;99.90;;;;;;5031734;28;20419;-60
2023/05/21 03:11:38;;;;;;;47.40;28.73;;;12.80;99.90;;;;;;5031288;28;20380;-60
2023/05/21 03:14:05;;;;;;;34.95;27.10;;;12.80;99.90;;;;;;5031462;28;20029;-60
2023/05/21 03:16:33;;;;;;;40.83;27.95;;;12.80;99.90;;;;;;5030142;28;20034;-61
2023/05/21 03:18:59;;;;;;;32.60;26.75;;;12.80;99.90;;;;;;5031164;28;20034;-61
2023/05/21 03:21:25;;;;;;;36.25;27.45;;;12.80;99.90;;;;;;5031151;28;20041;-60
2023/05/21 03:23:51;;;;;;;35.28;25.98;;;12.80;99.90;;;;;;5031113;28;20124;-61
2023/05/21 03:26:17;;;;;;;36.45;27.85;;;12.80;99.90;;;;;;5031367;28;20109;-61
2023/05/21 03:28:43;;;;;;;37.08;26.58;;;12.80;99.90;;;;;;5031286;28;20701;-60
2023/05/21 03:31:08;;;;;;;37.05;27.08;;;12.80;99.90;;;;;;5031575;28;20640;-60
2023/05/21 03:33:34;;;;;;;34.05;27.65;;;12.80;99.90;;;;;;5031418;28;20867;-61
2023/05/21 03:36:00;;;;;;;34.20;27.77;;;12.80;99.90;;;;;;5031053;28;20042;-60
2023/05/21 03:38:25;;;;;;;34.35;26.13;;;12.80;99.90;;;;;;5031223;28;20021;-61
2023/05/21 03:40:52;;;;;;;40.15;27.67;;;12.90;99.90;;;;;;5031253;28;20064;-60
2023/05/21 03:43:18;;;;;;;37.05;28.10;;;12.90;99.90;;;;;;5031087;28;20108;-60
2023/05/21 03:45:44;;;;;;;34.67;26.13;;;12.90;99.90;;;;;;5031343;28;20402;-60
2023/05/21 03:48:10;;;;;;;33.95;26.58;;;12.90;99.90;;;;;;5029834;28;20416;-60
2023/05/21 03:50:36;;;;;;;37.78;25.60;;;13.00;99.90;;;;;;5030838;28;20096;-60
2023/05/21 03:53:02;;;;;;;35.10;25.52;;;13.00;99.90;;;;;;5030934;28;20032;-60
2023/05/21 03:55:28;;;;;;;35.33;24.17;;;13.00;99.90;;;;;;5029910;28;20025;-60
2023/05/21 03:57:54;;;;;;;32.38;24.23;;;13.10;99.90;;;;;;5033812;28;20049;-60
2023/05/21 04:00:20;;;;;;;32.67;25.10;;;13.10;99.90;;;;;;5034597;28;20045;-60
2023/05/21 04:02:46;;;;;;;34.03;24.33;;;13.20;99.90;;;;;;5034392;28;20032;-60
2023/05/21 04:05:11;;;;;;;30.00;23.17;;;13.20;99.90;;;;;;5034460;28;20373;-60
2023/05/21 04:07:37;;;;;;;32.03;24.35;;;13.20;99.90;;;;;;5034473;28;20060;-60
2023/05/21 04:10:03;;;;;;;35.47;24.50;;;13.20;99.90;;;;;;5034549;28;20110;-60
2023/05/21 04:12:29;;;;;;;30.73;22.73;;;13.30;99.90;;;;;;5034525;28;20033;-60
2023/05/21 04:14:55;;;;;;;37.00;24.00;;;13.30;99.90;;;;;;5034361;28;20630;-60
2023/05/21 04:17:20;;;;;;;32.17;24.35;;;13.30;99.90;;;;;;5034328;28;20030;-60
2023/05/21 04:19:46;;;;;;;29.85;24.15;;;13.30;99.90;;;;;;5034288;28;20439;-60
2023/05/21 04:22:12;;;;;;;31.27;22.83;;;13.30;99.90;;;;;;5034408;28;20056;-60
2023/05/21 04:24:38;;;;;;;33.33;24.98;;;13.30;99.90;;;;;;5033865;28;20112;-60
2023/05/21 04:27:04;;;;;;;32.33;24.35;;;13.30;99.90;;;;;;5034130;28;20033;-60
2023/05/21 04:29:30;;;;;;;30.23;22.80;;;13.50;99.90;;;;;;5034417;28;20021;-60
2023/05/21 04:31:56;;;;;;;26.63;22.50;;;13.50;99.90;;;;;;5033898;28;20354;-60
2023/05/21 04:34:22;;;;;;;32.05;23.73;;;13.50;99.90;;;;;;5034634;28;20435;-60
2023/05/21 04:36:48;;;;;;;30.02;22.48;;;13.60;99.90;;;;;;5033934;28;21049;-60
2023/05/21 04:39:15;;;;;;;32.30;22.67;;;13.60;99.70;;;;;;5032714;28;20018;-60
2023/05/21 04:41:41;;;;;;;32.22;23.40;;;13.70;99.50;;;;;;5033839;28;20033;-60
2023/05/21 04:44:07;;;;;;;30.48;23.45;;;13.70;99.90;;;;;;5033743;28;20030;-60
2023/05/21 04:46:33;;;;;;;32.42;21.35;;;13.80;99.50;;;;;;5034136;28;20039;-60
2023/05/21 04:49:03;;;;;;;26.17;20.33;;;13.80;98.60;;;;;;5033814;28;20441;-60
2023/05/21 04:51:32;;;;;;;25.75;19.58;;;13.90;97.70;;;;;;5033742;28;20672;-60
2023/05/21 04:53:58;;;;;;;30.00;20.95;;;14.10;96.00;;;;;;5033866;28;20029;-60
2023/05/21 04:56:25;;;;;;;23.77;19.92;;;14.10;95.30;;;;;;5033385;28;21062;-60
2023/05/21 04:58:52;;;;;;;27.58;20.50;;;14.10;95.30;;;;;;5033458;28;20044;-60
2023/05/21 05:01:21;;;;;;;29.30;21.17;;;14.20;94.30;;;;;;5033741;28;20030;-60
2023/05/21 05:03:47;;;;;;;28.13;19.13;;;14.30;93.60;;;;;;5033368;28;20040;-60
2023/05/21 05:06:13;;;;;;;24.67;19.45;;;14.50;92.90;;;;;;5033595;28;20376;-60
2023/05/21 05:08:38;;;;;;;29.38;19.08;;;14.40;91.10;;;;;;5033373;28;20034;-60
2023/05/21 05:11:04;;;;;;;22.33;19.10;;;14.60;90.90;;;;;;5033248;28;20025;-60
2023/05/21 05:13:30;;;;;;;23.45;19.25;;;14.70;89.70;;;;;;5033384;28;20025;-60
2023/05/21 05:15:56;;;;;;;22.08;17.33;;;14.70;88.40;;;;;;5033165;28;20045;-61
2023/05/21 05:18:22;;;;;;;25.23;18.73;;;14.80;89.80;;;;;;5033177;28;20383;-60
2023/05/21 05:20:48;;;;;;;27.45;17.95;;;14.80;86.50;;;;;;5032959;28;20053;-60
2023/05/21 05:23:14;;;;;;;27.88;18.33;;;14.90;90.30;;;;;;5033135;28;20047;-60
2023/05/21 05:25:39;;;;;;;26.00;18.15;;;15.10;83.90;;;;;;5032848;28;20472;-60
2023/05/21 05:28:05;;;;;;;20.92;17.88;;;15.20;77.00;;;;;;5033039;28;20057;-60
2023/05/21 05:30:31;;;;;;;23.92;18.65;;;15.40;67.50;;;;;;5032491;28;20021;-60
2023/05/21 05:32:56;;;;;;;22.75;16.92;;;15.50;68.70;;;;;;5030854;28;20033;-60
2023/05/21 05:35:22;;;;;;;26.25;17.13;;;15.60;60.20;;;;;;5032674;28;20026;-60
2023/05/21 05:37:48;;;;;;;21.45;16.73;;;15.80;52.60;;;;;;5032605;28;20032;-60
2023/05/21 05:40:13;;;;;;;19.30;17.15;;;15.70;52.50;;;;;;5032574;28;20037;-60
2023/05/21 05:42:39;;;;;;;24.23;16.45;;;15.90;47.00;;;;;;5032393;28;20022;-60
2023/05/21 05:45:05;;;;;;;29.35;16.98;;;16.00;45.20;;;;;;5032521;28;20545;-60
2023/05/21 05:47:31;;;;;;;20.83;16.55;;;16.20;36.10;;;;;;5032853;28;20386;-60
2023/05/21 05:49:56;;;;;;;24.42;17.33;;;16.20;30.00;;;;;;5032336;28;20036;-60
2023/05/21 05:52:22;;;;;;;26.20;17.80;;;16.30;19.70;;;;;;5032354;28;20022;-60
2023/05/21 05:54:48;;;;;;;23.90;17.48;;;16.30;20.80;;;;;;5032220;28;20417;-60
2023/05/21 05:57:13;;;;;;;19.25;15.60;;;16.30;21.50;;;;;;5032263;28;20541;-57
2023/05/21 05:59:39;;;;;;;25.85;17.00;;;16.30;22.80;;;;;;5032554;28;20037;-60
2023/05/21 06:02:04;;;;;;;22.55;16.27;;;16.40;15.40;;;;;;5030818;28;20464;-60
2023/05/21 06:04:30;;;;;;;24.35;17.05;;;16.40;16.80;;;;;;5031097;28;20029;-60
2023/05/21 06:06:58;;;;;;;22.85;16.65;;;16.50;6.60;;;;;;5032107;28;20088;-61
2023/05/21 06:09:24;;;;;;;25.83;16.00;;;16.50;1.10;;;;;;5032614;28;20030;-60
2023/05/21 06:11:50;;;;;;;22.75;16.48;;;16.60;1.00;;;;;;5032407;28;20527;-60
2023/05/21 06:14:16;;;;;;;23.70;17.83;;;16.60;6.40;;;;;;5031965;28;20022;-60
2023/05/21 06:16:41;;;;;;;20.48;15.07;;;16.70;13.10;;;;;;5031488;28;20109;-60
2023/05/21 06:19:07;;;;;;;25.17;18.05;;;16.70;2.40;;;;;;5031808;28;20062;-60
2023/05/21 06:21:33;;;;;;;20.88;16.70;;;16.70;5.20;;;;;;5032334;28;20051;-60
2023/05/21 06:23:58;;;;;;;24.27;18.10;;;16.70;3.60;;;;;;5030577;28;20041;-60
2023/05/21 06:26:25;;;;;;;22.10;17.08;;;16.60;11.60;;;;;;5031850;28;20033;-61
2023/05/21 06:28:50;;;;;;;25.00;17.88;;;16.70;16.50;;;;;;5031892;28;20025;-60
2023/05/21 06:31:16;;;;;;;21.00;18.30;;;16.80;1.00;;;;;;5031941;28;20029;-60
2023/05/21 06:33:42;;;;;;;20.75;16.88;;;16.80;14.70;;;;;;5032212;28;20058;-59
2023/05/21 06:36:07;;;;;;;20.70;16.35;;;16.90;1.00;;;;;;5031912;28;20025;-60
2023/05/21 06:38:33;;;;;;;19.90;15.70;;;16.90;1.00;;;;;;5030790;28;20025;-61
2023/05/21 06:40:59;;;;;;;20.90;17.00;;;16.90;1.00;;;;;;5029887;28;20027;-60
2023/05/21 06:43:25;;;;;;;23.58;17.13;;;16.90;2.90;;;;;;5030976;28;20120;-60
2023/05/21 06:45:50;;;;;;;25.75;18.73;;;17.10;1.00;;;;;;5031530;28;20026;-60
2023/05/21 06:48:16;;;;;;;19.95;16.80;;;17.00;1.00;;;;;;5031714;28;20025;-60
2023/05/21 06:50:42;;;;;;;21.88;17.98;;;17.20;6.00;;;;;;5031488;28;20021;-59
2023/05/21 06:53:08;;;;;;;22.45;17.77;;;17.40;8.30;;;;;;5030128;28;20032;-60
2023/05/21 06:55:33;;;;;;;24.60;17.02;;;17.40;1.00;;;;;;5031055;28;20553;-60
2023/05/21 06:57:59;;;;;;;23.13;18.10;;;17.50;1.00;;;;;;5031393;28;20033;-60
2023/05/21 07:00:25;;;;;;;21.35;16.27;;;17.50;1.00;;;;;;5031349;28;20022;-60
2023/05/21 07:02:51;;;;;;;22.23;18.80;;;17.60;1.00;;;;;;5031089;28;20061;-60
2023/05/21 07:05:16;;;;;;;22.25;18.98;;;17.60;1.00;;;;;;5031221;28;20037;-60
2023/05/21 07:07:48;;;;;;;29.35;18.50;;;17.70;1.00;;;;;;5031305;28;20036;-60
2023/05/21 07:10:13;;;;;;;23.35;16.73;;;17.80;1.00;;;;;;5031324;28;20109;-60
2023/05/21 07:12:40;;;;;;;22.40;17.10;;;18.00;1.00;;;;;;5031275;28;20096;-60
2023/05/21 07:15:06;;;;;;;22.17;16.95;;;18.10;1.00;;;;;;5031406;28;20072;-60
2023/05/21 07:17:31;;;;;;;24.95;16.95;;;18.10;1.00;;;;;;5031351;28;20030;-60
2023/05/21 07:19:57;;;;;;;25.77;17.95;;;18.30;1.00;;;;;;5031249;28;20093;-59
2023/05/21 07:22:23;;;;;;;24.83;18.08;;;18.50;1.00;;;;;;5030221;28;20489;-60
2023/05/21 07:24:48;;;;;;;25.20;17.73;;;18.70;1.00;;;;;;5030745;28;20017;-60
2023/05/21 07:27:14;;;;;;;25.67;18.25;;;18.80;1.00;;;;;;5031433;28;20112;-60
2023/05/21 07:29:39;;;;;;;19.90;15.60;;;19.10;1.00;;;;;;5031047;28;20148;-61
2023/05/21 07:32:05;;;;;;;21.80;16.73;;;19.30;1.00;;;;;;5032692;28;20079;-60
2023/05/21 07:34:31;;;;;;;34.15;17.85;;;19.50;1.00;;;;;;5035058;28;20030;-60
2023/05/21 07:36:57;;;;;;;24.55;17.30;;;19.50;1.00;;;;;;5034899;28;21481;-60
2023/05/21 07:39:23;;;;;;;19.52;15.57;;;19.70;1.00;;;;;;5034905;28;20056;-61
2023/05/21 07:41:48;;;;;;;22.65;15.57;;;19.80;99.90;;;;;;5034838;28;20084;-60
2023/05/21 07:44:14;;;;;;;23.73;15.70;;;19.90;99.90;;;;;;5034828;28;20028;-60
2023/05/21 07:46:39;;;;;;;27.02;16.55;;;20.00;99.90;;;;;;5034756;28;20031;-60
2023/05/21 07:49:05;;;;;;;24.45;16.70;;;19.90;99.90;;;;;;5035192;28;20026;-60
2023/05/21 07:51:32;;;;;;;22.95;16.55;;;19.90;99.90;;;;;;5034924;28;20026;-60
2023/05/21 07:53:58;;;;;;;21.25;16.95;;;20.10;1.00;;;;;;5034305;28;20459;-60
2023/05/21 07:56:23;;;;;;;21.58;15.30;;;20.30;99.90;;;;;;5034744;28;20101;-60
2023/05/21 07:58:49;;;;;;;20.50;14.68;;;20.40;99.90;;;;;;5034520;28;20026;-60
2023/05/21 08:01:15;;;;;;;19.00;14.77;;;20.50;99.90;;;;;;5035194;28;20040;-60
2023/05/21 08:03:40;;;;;;;19.77;15.25;;;20.70;99.90;;;;;;5033276;28;20480;-61
2023/05/21 08:06:06;;;;;;;16.40;14.43;;;20.70;99.90;;;;;;5034671;28;20527;-60
2023/05/21 08:08:38;;;;;;;17.92;14.98;;;20.70;99.90;;;;;;5034285;28;20021;-60
2023/05/21 08:11:03;;;;;;;16.40;13.60;;;20.90;99.90;;;;;;5033930;28;20030;-60
2023/05/21 08:13:29;;;;;;;19.55;13.73;;;21.10;34.20;;;;;;5034173;28;20037;-60
2023/05/21 08:15:55;;;;;;;160.68;103.72;;;21.30;99.90;;;;;;5033631;28;20095;-60
2023/05/21 08:18:22;;;;;;;20.13;16.20;;;21.30;99.90;;;;;;5033164;28;20507;-60
2023/05/21 08:20:49;;;;;;;24.92;15.02;;;21.40;99.90;;;;;;5032453;28;20060;-58
2023/05/21 08:23:14;;;;;;;20.65;15.15;;;21.40;1.00;;;;;;5032931;28;20447;-59
2023/05/21 08:25:40;;;;;;;25.40;14.25;;;21.30;1.00;;;;;;5032337;28;20030;-60
2023/05/21 08:28:06;;;;;;;17.40;12.77;;;21.20;99.90;;;;;;5032929;28;20045;-61
2023/05/21 08:30:32;;;;;;;22.30;13.50;;;21.40;95.80;;;;;;5033998;28;20033;-61
2023/05/21 08:32:57;;;;;;;24.33;13.90;;;21.60;99.90;;;;;;5033797;28;20038;-62
2023/05/21 08:35:23;;;;;;;17.83;13.77;;;21.60;92.30;;;;;;5033731;28;20123;-60
2023/05/21 08:37:49;;;;;;;23.38;13.82;;;21.70;2.00;;;;;;5033693;28;20172;-59
2023/05/21 08:40:14;;;;;;;16.15;13.57;;;21.80;1.00;;;;;;5033830;28;20025;-59
2023/05/21 08:42:48;;;;;;;20.40;13.85;;;21.90;1.00;;;;;;5033357;28;20025;-60
2023/05/21 08:45:15;;;;;;;;;;;22.00;1.00;;;;;;5034270;28;20067;-60
2023/05/21 08:47:45;;;;;;;23.33;13.82;;;22.00;99.90;;;;;;5032385;28;19955;-59
2023/05/21 08:50:13;;;;;;;21.15;13.07;;;22.20;50.10;;;;;;5033743;28;20370;-61
2023/05/21 08:52:39;;;;;;;17.38;13.05;;;22.10;1.00;;;;;;5033245;28;20029;-61
2023/05/21 08:55:06;;;;;;;17.38;13.82;;;22.10;99.90;;;;;;5033336;28;20070;-60
2023/05/21 08:57:32;;;;;;;20.50;11.77;;;22.40;99.90;;;;;;5033669;28;20122;-61
2023/05/21 08:59:58;;;;;;;22.27;16.30;;;22.60;88.40;;;;;;5031753;28;20033;-60
2023/05/21 09:02:25;;;;;;;19.40;13.90;;;22.60;1.00;;;;;;5032336;28;20025;-60
2023/05/21 09:04:56;;;;;;;14.63;11.45;;;22.70;99.90;;;;;;5033250;28;20130;-60
2023/05/21 09:07:28;;;;;;;17.85;11.88;;;22.80;99.90;;;;;;5033423;28;20152;-61
2023/05/21 09:09:56;;;;;;;16.95;11.73;;;22.80;1.00;;;;;;5033163;28;20112;-60
2023/05/21 09:12:26;;;;;;;14.50;11.98;;;23.00;99.90;;;;;;5031759;28;20049;-62
2023/05/21 09:14:55;;;;;;;15.80;10.73;;;23.20;1.00;;;;;;5033148;28;20025;-60
2023/05/21 09:17:21;;;;;;;17.40;11.15;;;23.40;99.90;;;;;;5025854;28;20033;-60
2023/05/21 09:20:13;;;;;;;11.85;10.45;;;23.50;99.90;;;;;;5032670;28;20029;-60
2023/05/21 09:22:40;;;;;;;13.50;11.52;;;23.50;99.90;;;;;;5032935;28;20107;-60
2023/05/21 09:25:07;;;;;;;18.52;10.13;;;23.50;1.00;;;;;;5032803;28;20511;-60
2023/05/21 09:27:33;;;;;;;15.20;8.88;;;23.60;99.90;;;;;;5033060;28;20033;-59
2023/05/21 09:30:00;;;;;;;13.73;9.82;;;23.80;99.90;;;;;;5033319;28;20035;-60
2023/05/21 09:32:26;;;;;;;12.77;8.50;;;23.90;99.90;;;;;;5033008;28;20441;-60
2023/05/21 09:34:51;;;;;;;10.70;8.73;;;23.90;99.90;;;;;;5032517;28;20026;-60
2023/05/21 09:37:17;;;;;;;12.57;9.07;;;24.10;99.90;;;;;;5031783;28;20592;-60
2023/05/21 09:39:45;;;;;;;10.63;8.88;;;24.20;99.90;;;;;;5032567;28;20063;-60
2023/05/21 09:42:11;;;;;;;13.85;8.68;;;24.40;99.90;;;;;;5032588;28;20029;-60
2023/05/21 09:44:37;;;;;;;12.93;8.85;;;24.40;1.00;;;;;;5031152;28;20029;-60
2023/05/21 09:47:03;;;;;;;15.23;8.57;;;24.60;66.10;;;;;;5032629;28;20040;-60
2023/05/21 09:49:30;;;;;;;11.38;8.40;;;24.80;1.00;;;;;;5032532;28;20021;-60
2023/05/21 09:51:58;;;;;;;9.30;7.68;;;25.10;1.00;;;;;;5031657;28;20017;-60
2023/05/21 09:54:32;;;;;;;14.73;8.65;;;25.00;99.90;;;;;;5031850;28;20116;-60
2023/05/21 09:57:01;;;;;;;11.00;9.25;;;25.20;99.90;;;;;;5016610;28;20022;-60
2023/05/21 09:59:35;;;;;;;16.45;11.23;;;25.20;99.90;;;;;;5033859;28;20129;-60
2023/05/21 10:02:01;;;;;;;15.38;9.95;;;25.20;99.90;;;;;;5043393;28;20022;-60
2023/05/21 10:04:29;;;;;;;15.90;8.65;;;25.30;99.90;;;;;;5031340;28;20033;-60
2023/05/21 10:06:56;;;;;;;14.27;8.50;;;25.30;99.90;;;;;;5031585;28;20017;-60
2023/05/21 10:09:23;;;;;;;13.50;9.48;;;25.30;99.90;;;;;;5031478;28;20018;-58
2023/05/21 10:11:52;;;;;;;17.35;10.32;;;25.30;99.90;;;;;;5031865;28;20476;-58
2023/05/21 10:14:21;;;;;;;12.82;9.73;;;25.60;99.90;;;;;;5032130;28;20461;-60
2023/05/21 10:16:47;;;;;;;15.10;8.88;;;25.50;76.00;;;;;;5031841;28;20586;-60
2023/05/21 10:19:14;;;;;;;12.85;10.00;;;25.70;79.90;;;;;;5031791;28;20400;-60
2023/05/21 10:21:40;;;;;;;11.40;9.80;;;26.00;69.90;;;;;;5032029;28;20164;-60
2023/05/21 10:24:08;;;;;;;12.43;9.43;;;26.00;99.90;;;;;;5032052;28;20056;-59
2023/05/21 10:26:34;;;;;;;11.82;7.68;;;25.90;95.90;;;;;;5031775;28;20124;-60
2023/05/21 10:29:01;;;;;;;14.15;9.00;;;25.90;43.10;;;;;;5031594;28;20552;-60
2023/05/21 10:31:28;;;;;;;15.07;7.35;;;26.00;99.90;;;;;;5031875;28;20040;-60
2023/05/21 10:33:54;;;;;;;10.75;6.75;;;26.30;93.30;;;;;;5031471;28;20026;-60
2023/05/21 10:36:22;;;;;;;9.45;7.60;;;26.50;34.30;;;;;;5031715;28;20048;-60
2023/05/21 10:38:48;;;;;;;9.60;7.80;;;26.40;4.10;;;;;;5030230;28;20036;-59
2023/05/21 10:41:18;;;;;;;13.73;8.27;;;26.50;32.00;;;;;;5032947;28;20029;-59
2023/05/21 10:44:21;;;;;;;9.05;7.32;;;26.30;1.00;;;;;;5031072;28;20029;-60
2023/05/21 10:47:07;;;;;;;10.65;7.70;;;26.20;10.80;;;;;;5031180;28;20049;-58
2023/05/21 10:49:33;;;;;;;16.13;7.97;;;26.50;14.00;;;;;;5031770;28;20028;-58
2023/05/21 10:52:36;;;;;;;9.63;7.53;;;26.80;31.50;;;;;;5031439;28;20025;-60
2023/05/21 10:55:10;;;;;;;13.55;7.53;;;27.00;1.00;;;;;;5030020;28;20048;-60
2023/05/21 10:57:54;;;;;;;8.90;7.78;;;26.80;1.00;;;;;;5031596;28;20160;-60
2023/05/21 11:00:20;;;;;;;25.23;6.80;;;27.00;1.00;;;;;;5000020;28;20037;-60
2023/05/21 11:02:50;;;;;;;13.52;7.35;;;27.30;1.00;;;;;;5002487;28;20042;-60
2023/05/21 11:05:17;;;;;;;10.98;7.60;;;27.30;1.00;;;;;;5002332;28;20418;-60
2023/05/21 11:07:56;;;;;;;12.05;9.55;;;27.50;1.00;;;;;;5007448;28;20469;-60
2023/05/21 11:10:39;;;;;;;13.82;8.40;;;27.60;1.00;;;;;;5007494;28;20512;-58
2023/05/21 11:13:06;;;;;;;9.80;7.53;;;27.50;1.00;;;;;;5006831;28;20026;-58
2023/05/21 11:16:00;;;;;;;10.05;8.65;;;28.00;1.00;;;;;;5008992;28;20033;-58
2023/05/21 11:18:38;;;;;;;17.40;10.52;;;28.30;1.00;;;;;;5007807;28;20034;-58
2023/05/21 11:21:13;;;;;;;19.83;6.97;;;28.30;1.00;;;;;;5006837;28;20121;-58
2023/05/21 11:23:52;;;;;;;10.65;7.97;;;28.30;1.00;;;;;;5007546;28;20034;-58
2023/05/21 11:26:25;;;;;;;8.52;7.28;;;28.60;1.00;;;;;;5007711;28;20496;-58
2023/05/21 11:29:03;;;;;;;11.80;9.18;;;28.60;1.00;;;;;;5008520;28;20838;-58
2023/05/21 11:31:36;;;;;;;10.68;6.65;;;28.30;99.90;;;;;;5007384;28;20366;-58
2023/05/21 11:34:19;;;;;;;11.43;6.70;;;27.80;99.90;;;;;;5006180;28;20041;-58
2023/05/21 11:36:48;;;;;;;9.63;7.28;;;27.40;99.90;;;;;;5005736;28;20030;-58
2023/05/21 11:39:21;;;;;;;9.63;6.35;;;27.30;99.90;;;;;;5006764;28;20500;-58
2023/05/21 11:42:00;;;;;;;12.10;7.50;;;27.90;1.00;;;;;;5014408;28;20033;-58
2023/05/21 11:44:46;;;;;;;10.68;7.13;;;28.30;1.00;;;;;;5017377;28;20385;-58
2023/05/21 11:47:16;;;;;;;12.00;6.82;;;28.50;99.90;;;;;;5017711;28;20056;-58
2023/05/21 11:49:43;;;;;;;11.98;7.10;;;28.40;99.90;;;;;;5013662;28;20084;-58
2023/05/21 11:52:10;;;;;;;12.38;6.60;;;28.30;99.90;;;;;;5006254;28;20034;-59
2023/05/21 11:54:49;;;;;;;13.57;6.70;;;28.40;99.90;;;;;;5007797;28;20084;-58
2023/05/21 11:57:16;;;;;;;10.85;6.30;;;28.30;99.90;;;;;;5005651;28;20030;-58
2023/05/21 11:59:42;;;;;;;8.65;6.55;;;28.80;99.90;;;;;;5007028;28;22359;-58
2023/05/21 12:02:08;;;;;;;15.32;7.25;;;29.20;99.90;;;;;;5005950;28;20049;-58
2023/05/21 12:04:35;;;;;;;12.23;6.53;;;29.70;99.90;;;;;;5004932;28;20034;-59
2023/05/21 12:07:07;;;;;;;8.30;6.95;;;30.30;99.90;;;;;;5005644;28;20030;-58
2023/05/21 12:09:53;;;;;;;13.35;6.93;;;30.70;99.90;;;;;;5006722;28;20042;-59
2023/05/21 12:12:21;;;;;;;12.25;6.88;;;31.00;99.90;;;;;;5005153;28;20418;-59
2023/05/21 12:14:51;;;;;;;11.52;6.32;;;31.10;99.90;;;;;;5005289;28;20049;-58
2023/05/21 12:17:21;;;;;;;7.78;6.43;;;31.70;99.90;;;;;;5003482;28;20022;-59
2023/05/21 12:19:49;;;;;;;10.55;5.85;;;31.90;99.90;;;;;;5002948;28;20033;-58
2023/05/21 12:22:15;;;;;;;6.80;6.05;;;31.90;99.90;;;;;;5001411;28;20041;-58
2023/05/21 12:24:42;;;;;;;11.43;6.15;;;32.80;99.90;;;;;;5001565;28;20702;-59
2023/05/21 12:27:09;;;;;;;15.30;6.45;;;33.10;99.90;;;;;;5000620;28;20037;-59
2023/05/21 12:29:39;;;;;;;8.38;6.30;;;33.30;99.90;;;;;;5002323;28;20473;-59
2023/05/21 12:32:08;;;;;;;14.73;6.10;;;33.20;99.90;;;;;;5001521;28;20022;-59
2023/05/21 12:34:53;;;;;;;7.85;5.78;;;33.30;99.90;;;;;;5001459;28;20536;-59
2023/05/21 12:37:34;;;;;;;10.80;6.10;;;33.70;99.90;;;;;;5001863;28;20034;-59